createdAt,value
2022-08-31T00:00:30.511Z,0.50
2022-08-31T00:03:15.837Z,0.30
2022-08-31T00:05:43.148Z,0.70
2022-08-31T00:08:09.800Z,0.88
2022-08-31T00:10:40.878Z,0.32
2022-08-31T00:13:10.000Z,0.45
2022-08-31T00:15:36.922Z,0.50
2022-08-31T00:18:04.653Z,0.40
2022-08-31T00:20:33.588Z,0.43
2022-08-31T00:23:07.571Z,0.28
2022-08-31T00:25:35.190Z,0.32
2022-08-31T00:28:02.706Z,0.88
2022-08-31T00:30:30.678Z,0.63
2022-08-31T00:32:58.534Z,0.40
2022-08-31T00:35:30.564Z,0.68
2022-08-31T00:37:57.459Z,0.40
2022-08-31T00:40:25.340Z,1.10
2022-08-31T00:42:52.605Z,0.17
2022-08-31T00:45:19.492Z,0.57
2022-08-31T00:47:46.249Z,0.70
2022-08-31T00:50:15.250Z,0.40
2022-08-31T00:52:45.696Z,0.88
2022-08-31T00:57:56.322Z,0.45
2022-08-31T01:00:25.750Z,2.35
2022-08-31T01:02:53.194Z,0.50
2022-08-31T01:05:21.243Z,0.73
2022-08-31T01:07:48.626Z,0.55
2022-08-31T01:10:17.376Z,0.30
2022-08-31T01:12:45.620Z,0.93
2022-08-31T01:15:13.028Z,1.13
2022-08-31T01:17:41.277Z,1.17
2022-08-31T01:20:32.275Z,0.32
2022-08-31T01:23:05.902Z,0.63
2022-08-31T01:25:35.179Z,0.20
2022-08-31T01:28:05.037Z,0.88
2022-08-31T01:30:32.522Z,0.70
2022-08-31T01:32:59.563Z,0.40
2022-08-31T01:35:26.788Z,0.40
2022-08-31T01:37:54.106Z,1.05
2022-08-31T01:40:21.096Z,0.85
2022-08-31T01:42:47.959Z,0.25
2022-08-31T01:45:15.410Z,0.55
2022-08-31T01:47:42.316Z,0.65
2022-08-31T01:50:09.911Z,0.50
2022-08-31T01:52:37.987Z,0.60
2022-08-31T01:55:07.242Z,0.30
2022-08-31T01:57:34.777Z,0.25
2022-08-31T02:00:37.166Z,0.60
2022-08-31T02:03:07.794Z,0.35
2022-08-31T02:05:36.610Z,0.63
2022-08-31T02:08:05.717Z,0.40
2022-08-31T02:10:32.754Z,0.28
2022-08-31T02:13:00.229Z,0.82
2022-08-31T02:17:56.801Z,0.40
2022-08-31T02:20:23.968Z,0.30
2022-08-31T02:22:51.144Z,0.40
2022-08-31T02:25:18.196Z,0.43
2022-08-31T02:27:45.861Z,0.45
2022-08-31T02:30:19.166Z,0.50
2022-08-31T02:32:45.905Z,0.45
2022-08-31T02:35:13.107Z,0.40
2022-08-31T02:37:39.856Z,0.32
2022-08-31T02:40:12.090Z,0.57
2022-08-31T02:42:53.540Z,0.20
2022-08-31T02:45:24.676Z,0.13
2022-08-31T02:47:54.241Z,0.10
2022-08-31T02:50:28.129Z,0.30
2022-08-31T02:52:56.758Z,0.28
2022-08-31T02:55:25.154Z,0.65
2022-08-31T02:57:52.300Z,0.85
2022-08-31T03:00:21.594Z,0.20
2022-08-31T03:02:48.724Z,1.05
2022-08-31T03:05:15.670Z,0.20
2022-08-31T03:07:42.626Z,0.52
2022-08-31T03:10:13.529Z,0.60
2022-08-31T03:12:40.498Z,0.70
2022-08-31T03:15:11.106Z,0.28
2022-08-31T03:17:38.291Z,0.30
2022-08-31T03:20:07.737Z,0.60
2022-08-31T03:22:34.660Z,0.63
2022-08-31T03:25:05.490Z,0.20
2022-08-31T03:27:32.325Z,0.40
2022-08-31T03:30:00.447Z,0.50
2022-08-31T03:32:31.343Z,0.10
2022-08-31T03:34:59.930Z,0.20
2022-08-31T03:37:27.340Z,0.10
2022-08-31T03:39:58.026Z,0.17
2022-08-31T03:42:25.575Z,0.68
2022-08-31T03:44:54.285Z,0.40
2022-08-31T03:47:28.373Z,0.77
2022-08-31T03:49:59.373Z,0.17
2022-08-31T03:52:56.541Z,0.40
2022-08-31T03:55:25.329Z,0.10
2022-08-31T03:57:52.989Z,0.30
2022-08-31T04:00:19.867Z,0.50
2022-08-31T04:02:57.331Z,0.50
2022-08-31T04:05:31.768Z,0.15
2022-08-31T04:08:07.419Z,0.40
2022-08-31T04:10:53.780Z,0.20
2022-08-31T04:13:40.177Z,0.32
2022-08-31T04:16:36.877Z,0.30
2022-08-31T04:19:22.319Z,0.20
2022-08-31T04:22:00.823Z,0.55
2022-08-31T04:24:29.458Z,0.55
2022-08-31T04:26:56.182Z,0.25
2022-08-31T04:29:23.712Z,0.68
2022-08-31T04:31:50.433Z,0.40
2022-08-31T04:34:17.200Z,0.75
2022-08-31T04:36:46.897Z,0.17
2022-08-31T04:39:14.844Z,0.10
2022-08-31T04:41:43.900Z,0.20
2022-08-31T04:44:16.439Z,0.63
2022-08-31T04:49:49.064Z,0.20
2022-08-31T04:52:16.472Z,0.22
2022-08-31T04:54:43.465Z,0.20
2022-08-31T04:57:10.816Z,0.38
2022-08-31T04:59:37.671Z,0.32
2022-08-31T05:02:24.851Z,0.10
2022-08-31T05:05:01.151Z,0.20
2022-08-31T05:07:28.496Z,0.30
2022-08-31T05:09:58.165Z,0.22
2022-08-31T05:12:24.983Z,0.30
2022-08-31T05:14:52.688Z,0.55
2022-08-31T05:17:23.921Z,0.25
2022-08-31T05:19:52.339Z,0.20
2022-08-31T05:22:19.233Z,0.30
2022-08-31T05:24:51.641Z,0.38
2022-08-31T05:33:38.883Z,0.90
2022-08-31T05:36:06.491Z,0.40
2022-08-31T05:38:34.842Z,0.30
2022-08-31T05:41:04.422Z,0.22
2022-08-31T05:43:31.104Z,0.30
2022-08-31T05:45:57.953Z,0.30
2022-08-31T05:48:30.114Z,0.43
2022-08-31T05:51:01.209Z,0.22
2022-08-31T05:53:28.186Z,0.30
2022-08-31T05:56:10.621Z,0.20
2022-08-31T05:58:38.974Z,0.30
2022-08-31T06:01:15.986Z,0.68
2022-08-31T06:04:03.361Z,0.40
2022-08-31T06:06:30.309Z,0.45
2022-08-31T06:08:57.878Z,0.22
2022-08-31T06:11:28.247Z,0.10
2022-08-31T06:13:58.242Z,0.10
2022-08-31T06:16:26.394Z,0.37
2022-08-31T06:18:55.630Z,0.43
2022-08-31T06:21:26.293Z,0.45
2022-08-31T06:23:57.183Z,0.20
2022-08-31T06:26:26.840Z,0.38
2022-08-31T06:28:56.861Z,0.20
2022-08-31T06:31:31.442Z,0.20
2022-08-31T06:33:59.284Z,0.20
2022-08-31T06:36:49.758Z,0.20
2022-08-31T06:39:37.179Z,0.30
2022-08-31T06:42:22.537Z,0.70
2022-08-31T06:44:59.306Z,0.38
2022-08-31T06:47:38.162Z,0.30
2022-08-31T06:50:06.254Z,0.45
2022-08-31T06:52:38.248Z,0.43
2022-08-31T06:55:16.610Z,0.32
2022-08-31T06:57:52.595Z,0.40
2022-08-31T07:00:37.990Z,0.40
2022-08-31T07:03:34.452Z,0.32
2022-08-31T07:06:22.866Z,0.32
2022-08-31T07:08:52.296Z,0.20
2022-08-31T07:11:26.113Z,0.50
2022-08-31T07:13:55.090Z,0.55
2022-08-31T07:16:24.249Z,0.20
2022-08-31T07:18:52.459Z,0.20
2022-08-31T07:21:25.751Z,0.10
2022-08-31T07:23:54.061Z,0.20
2022-08-31T07:26:27.807Z,0.20
2022-08-31T07:28:56.646Z,0.30
2022-08-31T07:31:30.352Z,0.55
2022-08-31T07:33:57.312Z,0.60
2022-08-31T07:36:26.301Z,0.50
2022-08-31T07:39:24.581Z,0.40
2022-08-31T07:42:09.297Z,0.20
2022-08-31T07:44:36.385Z,0.40
2022-08-31T07:47:04.259Z,0.57
2022-08-31T07:49:31.188Z,0.20
2022-08-31T07:52:28.786Z,0.40
2022-08-31T07:55:23.720Z,0.40
2022-08-31T07:57:58.952Z,0.30
2022-08-31T08:00:28.477Z,0.65
2022-08-31T08:02:55.622Z,0.60
2022-08-31T08:05:29.238Z,0.45
2022-08-31T08:08:29.958Z,0.43
2022-08-31T08:11:18.302Z,0.35
2022-08-31T08:13:54.333Z,0.40
2022-08-31T08:16:29.331Z,0.50
2022-08-31T08:19:06.270Z,0.30
2022-08-31T08:21:33.056Z,0.70
2022-08-31T08:24:00.584Z,0.20
2022-08-31T08:26:45.571Z,0.32
2022-08-31T08:29:25.187Z,0.43
2022-08-31T08:31:56.192Z,0.20
2022-08-31T08:34:32.475Z,0.77
2022-08-31T08:37:01.904Z,0.10
2022-08-31T08:39:29.878Z,0.40
2022-08-31T08:42:11.056Z,0.20
2022-08-31T08:44:38.433Z,0.68
2022-08-31T08:47:08.075Z,0.40
2022-08-31T08:49:54.230Z,0.47
2022-08-31T08:52:41.631Z,0.55
2022-08-31T08:55:16.371Z,0.20
2022-08-31T08:57:46.061Z,0.40
2022-08-31T09:00:20.601Z,0.30
2022-08-31T09:03:01.121Z,0.57
2022-08-31T09:06:09.971Z,0.20
2022-08-31T09:08:59.622Z,0.50
2022-08-31T09:11:42.112Z,0.65
2022-08-31T09:14:28.554Z,0.55
2022-08-31T09:17:07.919Z,1.48
2022-08-31T09:19:54.685Z,0.20
2022-08-31T09:22:21.622Z,0.30
2022-08-31T09:24:53.067Z,0.38
2022-08-31T09:27:46.887Z,0.25
2022-08-31T09:30:32.967Z,0.28
2022-08-31T09:33:00.407Z,0.50
2022-08-31T09:35:40.403Z,0.28
2022-08-31T09:38:12.528Z,0.22
2022-08-31T09:40:47.937Z,0.52
2022-08-31T09:43:25.608Z,0.30
2022-08-31T09:46:21.354Z,0.63
2022-08-31T09:48:58.751Z,0.30
2022-08-31T09:51:34.942Z,0.30
2022-08-31T09:54:37.293Z,0.20
2022-08-31T09:57:09.130Z,0.30
2022-08-31T09:59:44.162Z,0.45
2022-08-31T10:02:23.231Z,0.30
2022-08-31T10:04:54.740Z,0.25
2022-08-31T10:07:28.919Z,0.32
2022-08-31T10:10:06.208Z,0.68
2022-08-31T10:12:49.672Z,0.38
2022-08-31T10:15:43.785Z,0.20
2022-08-31T10:18:38.360Z,0.88
2022-08-31T10:21:16.425Z,0.25
2022-08-31T10:23:54.444Z,0.20
2022-08-31T10:26:36.649Z,0.20
2022-08-31T10:29:08.378Z,0.30
2022-08-31T10:31:48.558Z,0.20
2022-08-31T10:34:43.930Z,0.17
2022-08-31T10:37:25.275Z,0.30
2022-08-31T10:39:55.128Z,0.40
2022-08-31T10:42:26.943Z,0.20
2022-08-31T10:44:57.270Z,0.20
2022-08-31T10:47:33.255Z,0.13
2022-08-31T10:50:03.716Z,0.10
2022-08-31T10:52:34.301Z,0.28
2022-08-31T10:55:06.732Z,0.20
2022-08-31T10:57:44.521Z,0.70
2022-08-31T11:00:40.044Z,0.20
2022-08-31T11:03:13.265Z,0.10
2022-08-31T11:05:51.170Z,0.28
2022-08-31T11:08:59.752Z,0.20
2022-08-31T11:11:50.166Z,0.20
2022-08-31T11:14:36.655Z,0.40
2022-08-31T11:17:34.559Z,0.20
2022-08-31T11:20:39.928Z,0.10
2022-08-31T11:23:15.829Z,0.63
2022-08-31T11:26:16.973Z,0.20
2022-08-31T11:28:49.575Z,0.40
2022-08-31T11:31:24.249Z,0.32
2022-08-31T11:34:15.958Z,0.30
2022-08-31T11:36:50.475Z,0.40
2022-08-31T11:39:36.248Z,0.20
2022-08-31T11:42:19.237Z,0.40
2022-08-31T11:44:59.353Z,0.25
2022-08-31T11:47:29.954Z,0.30
2022-08-31T11:50:33.233Z,0.38
2022-08-31T11:53:02.002Z,0.40
2022-08-31T11:55:30.529Z,0.25
2022-08-31T11:58:06.226Z,0.40
2022-08-31T12:00:44.017Z,0.20
2022-08-31T12:03:37.146Z,0.52
2022-08-31T12:06:05.813Z,0.30
2022-08-31T12:08:35.068Z,0.30
2022-08-31T12:11:41.872Z,0.30
2022-08-31T12:14:14.321Z,0.40
2022-08-31T12:16:44.890Z,0.43
2022-08-31T12:20:01.669Z,0.20
2022-08-31T12:23:06.062Z,0.50
2022-08-31T12:25:59.928Z,0.20
2022-08-31T12:28:55.090Z,0.30
2022-08-31T12:31:21.873Z,0.20
2022-08-31T12:34:03.761Z,0.20
2022-08-31T12:36:35.219Z,0.28
2022-08-31T12:39:07.363Z,1.08
2022-08-31T12:41:34.200Z,0.30
2022-08-31T12:44:03.855Z,0.28
2022-08-31T12:46:33.895Z,0.22
2022-08-31T12:49:09.495Z,0.40
2022-08-31T12:51:36.255Z,0.20
2022-08-31T12:54:06.009Z,0.57
2022-08-31T12:57:02.110Z,0.57
2022-08-31T12:59:57.444Z,0.40
2022-08-31T13:02:25.052Z,0.20
2022-08-31T13:04:52.038Z,0.20
2022-08-31T13:07:21.613Z,0.20
2022-08-31T13:10:04.181Z,1.05
2022-08-31T13:12:31.097Z,0.20
2022-08-31T13:14:57.916Z,0.40
2022-08-31T13:17:24.769Z,0.30
2022-08-31T13:19:55.469Z,0.47
2022-08-31T13:22:44.721Z,0.32
2022-08-31T13:25:42.782Z,0.20
2022-08-31T13:28:15.507Z,0.40
2022-08-31T13:30:56.374Z,0.40
2022-08-31T13:33:27.110Z,0.50
2022-08-31T13:36:32.557Z,0.40
2022-08-31T13:39:25.561Z,0.40
2022-08-31T13:42:08.891Z,0.45
2022-08-31T13:44:39.907Z,0.40
2022-08-31T13:47:31.945Z,0.30
2022-08-31T13:50:13.706Z,0.55
2022-08-31T13:53:04.136Z,0.40
2022-08-31T13:55:43.726Z,0.68
2022-08-31T13:58:26.830Z,0.35
2022-08-31T14:01:19.470Z,0.40
2022-08-31T14:03:52.083Z,0.50
2022-08-31T14:06:35.084Z,0.30
2022-08-31T14:09:16.640Z,0.75
2022-08-31T14:11:53.969Z,1.45
2022-08-31T14:14:29.969Z,0.85
2022-08-31T14:16:58.286Z,1.00
2022-08-31T14:19:33.050Z,0.20
2022-08-31T14:22:25.549Z,0.30
2022-08-31T14:24:52.288Z,0.38
2022-08-31T14:27:18.934Z,0.40
2022-08-31T14:29:46.162Z,0.43
2022-08-31T14:32:13.207Z,0.30
2022-08-31T14:34:47.157Z,0.60
2022-08-31T14:37:19.803Z,0.93
2022-08-31T14:39:50.625Z,0.22
2022-08-31T14:42:31.003Z,0.70
2022-08-31T14:45:05.498Z,0.30
2022-08-31T14:47:44.076Z,0.30
2022-08-31T14:50:14.024Z,1.13
2022-08-31T14:52:46.467Z,0.40
2022-08-31T14:55:14.269Z,0.45
2022-08-31T14:57:45.682Z,0.52
2022-08-31T15:00:15.076Z,0.50
2022-08-31T15:02:42.065Z,0.80
2022-08-31T15:05:09.773Z,1.02
2022-08-31T15:07:39.376Z,0.50
2022-08-31T15:10:08.793Z,0.50
2022-08-31T15:12:35.834Z,0.60
2022-08-31T15:15:02.994Z,0.60
2022-08-31T15:17:33.681Z,0.65
2022-08-31T15:20:03.235Z,0.50
2022-08-31T15:22:31.401Z,0.57
2022-08-31T15:24:58.363Z,0.50
2022-08-31T15:27:28.871Z,0.77
2022-08-31T15:30:02.498Z,1.02
2022-08-31T15:32:29.312Z,0.40
2022-08-31T15:34:58.854Z,0.93
2022-08-31T15:37:31.905Z,1.05
2022-08-31T15:40:00.951Z,1.30
2022-08-31T15:44:56.880Z,2.40
2022-08-31T15:47:48.219Z,3.40
2022-08-31T15:50:19.217Z,3.85
2022-08-31T15:52:50.973Z,4.82
2022-08-31T15:55:26.437Z,5.88
2022-08-31T15:57:55.125Z,6.70
2022-08-31T16:00:27.015Z,7.50
2022-08-31T16:02:57.458Z,7.80
2022-08-31T16:05:28.471Z,9.23
2022-08-31T16:07:55.670Z,9.10
2022-08-31T16:10:23.388Z,9.57
2022-08-31T16:12:52.156Z,9.48
2022-08-31T16:15:21.286Z,9.13
2022-08-31T16:17:51.413Z,9.77
2022-08-31T16:20:18.123Z,9.30
2022-08-31T16:22:45.554Z,8.70
2022-08-31T16:25:14.315Z,8.32
2022-08-31T16:27:43.481Z,8.15
2022-08-31T16:30:12.220Z,7.05
2022-08-31T16:32:39.459Z,7.30
2022-08-31T16:35:06.954Z,6.30
2022-08-31T16:37:33.853Z,6.00
2022-08-31T16:40:00.710Z,4.75
2022-08-31T16:42:28.046Z,3.88
2022-08-31T16:44:59.763Z,3.80
2022-08-31T16:47:29.092Z,3.53
2022-08-31T16:49:55.919Z,1.48
2022-08-31T16:52:26.551Z,0.80
2022-08-31T16:54:54.130Z,0.55
2022-08-31T16:57:26.995Z,0.60
2022-08-31T16:59:55.728Z,0.47
2022-08-31T17:02:23.775Z,0.30
2022-08-31T17:04:53.076Z,0.47
2022-08-31T17:07:23.651Z,0.30
2022-08-31T17:09:51.149Z,0.77
2022-08-31T17:12:21.790Z,0.40
2022-08-31T17:14:52.817Z,0.88
2022-08-31T17:17:24.939Z,0.30
2022-08-31T17:19:53.211Z,0.45
2022-08-31T17:22:29.904Z,0.20
2022-08-31T17:25:01.223Z,0.30
2022-08-31T17:27:27.975Z,0.30
2022-08-31T17:30:00.841Z,0.30
2022-08-31T17:32:28.391Z,0.30
2022-08-31T17:34:55.739Z,0.35
2022-08-31T17:37:31.514Z,0.40
2022-08-31T17:40:00.854Z,0.57
2022-08-31T17:42:28.695Z,0.27
2022-08-31T17:44:56.992Z,0.40
2022-08-31T17:47:25.291Z,0.50
2022-08-31T17:49:53.655Z,0.20
2022-08-31T17:52:21.648Z,0.30
2022-08-31T17:54:50.933Z,0.20
2022-08-31T17:57:22.316Z,0.73
2022-08-31T17:59:49.294Z,0.47
2022-08-31T18:02:21.589Z,0.40
2022-08-31T18:04:49.160Z,0.25
2022-08-31T18:07:16.414Z,0.47
2022-08-31T18:09:45.559Z,0.52
2022-08-31T18:12:14.479Z,0.30
2022-08-31T18:14:41.715Z,0.60
2022-08-31T18:17:11.728Z,0.60
2022-08-31T18:19:38.879Z,0.55
2022-08-31T18:22:06.792Z,0.52
2022-08-31T18:24:35.700Z,0.90
2022-08-31T18:27:07.187Z,0.55
2022-08-31T18:29:36.418Z,0.38
2022-08-31T18:32:05.240Z,0.30
2022-08-31T18:34:35.154Z,0.28
2022-08-31T18:37:02.248Z,0.50
2022-08-31T18:39:51.020Z,0.60
2022-08-31T18:42:38.061Z,0.15
2022-08-31T18:45:19.366Z,0.52
2022-08-31T18:48:23.822Z,0.43
2022-08-31T18:50:44.649Z,0.20
2022-08-31T18:53:15.081Z,0.17
2022-08-31T18:55:43.638Z,0.43
2022-08-31T18:58:10.614Z,0.28
2022-08-31T19:00:37.705Z,0.50
2022-08-31T19:03:04.926Z,0.77
2022-08-31T19:05:32.729Z,0.10
2022-08-31T19:08:00.305Z,0.50
2022-08-31T19:10:27.390Z,0.20
2022-08-31T19:12:57.153Z,0.32
2022-08-31T19:15:31.486Z,0.17
2022-08-31T19:18:03.413Z,0.30
2022-08-31T19:20:30.391Z,0.88
2022-08-31T19:22:57.209Z,0.68
2022-08-31T19:25:24.563Z,0.65
2022-08-31T19:27:52.119Z,0.52
2022-08-31T19:30:24.413Z,0.40
2022-08-31T19:32:53.601Z,0.45
2022-08-31T19:35:20.342Z,0.65
2022-08-31T19:37:49.719Z,0.20
2022-08-31T19:40:18.213Z,0.30
2022-08-31T19:43:41.814Z,0.40
2022-08-31T19:45:42.880Z,0.77
2022-08-31T19:48:11.938Z,0.30
2022-08-31T19:50:42.576Z,0.65
2022-08-31T19:53:12.552Z,0.85
2022-08-31T19:55:50.770Z,0.20
2022-08-31T19:58:26.204Z,0.43
2022-08-31T20:01:01.411Z,1.00
2022-08-31T20:03:31.828Z,0.40
2022-08-31T20:05:59.934Z,0.73
2022-08-31T20:08:26.764Z,0.17
2022-08-31T20:10:53.561Z,0.47
2022-08-31T20:13:22.956Z,0.32
2022-08-31T20:15:50.970Z,0.43
2022-08-31T20:18:17.889Z,0.88
2022-08-31T20:20:48.240Z,0.77
2022-08-31T20:23:17.281Z,0.40
2022-08-31T20:25:46.354Z,1.25
2022-08-31T20:28:13.470Z,0.40
2022-08-31T20:30:41.509Z,0.50
2022-08-31T20:33:09.667Z,0.45
2022-08-31T20:35:41.452Z,0.73
2022-08-31T20:38:11.946Z,0.55
2022-08-31T20:40:40.184Z,0.40
2022-08-31T20:43:11.556Z,0.70
2022-08-31T20:45:39.168Z,0.80
2022-08-31T20:48:24.670Z,0.77
2022-08-31T20:50:51.601Z,0.47
2022-08-31T20:53:38.951Z,0.28
2022-08-31T20:56:09.078Z,0.32
2022-08-31T20:58:35.837Z,0.30
2022-08-31T21:01:06.995Z,0.73
2022-08-31T21:03:34.687Z,0.40
2022-08-31T21:06:08.334Z,0.63
2022-08-31T21:08:38.349Z,1.13
2022-08-31T21:11:16.625Z,1.20
2022-08-31T21:13:44.747Z,0.43
2022-08-31T21:16:11.938Z,0.57
2022-08-31T21:18:40.504Z,1.20
2022-08-31T21:21:10.290Z,0.60
2022-08-31T21:23:38.584Z,0.77
2022-08-31T21:26:08.678Z,0.30
2022-08-31T21:28:38.573Z,0.73
2022-08-31T21:31:16.569Z,0.38
2022-08-31T21:34:00.453Z,0.75
2022-08-31T21:36:28.179Z,0.30
2022-08-31T21:38:57.120Z,0.63
2022-08-31T21:41:26.718Z,0.35
2022-08-31T21:43:55.045Z,0.40
2022-08-31T21:46:25.198Z,0.82
2022-08-31T21:51:21.095Z,0.75
2022-08-31T21:53:51.709Z,0.38
2022-08-31T21:56:20.027Z,0.43
2022-08-31T21:58:47.717Z,0.40
2022-08-31T22:01:18.504Z,0.57
2022-08-31T22:03:47.324Z,0.40
2022-08-31T22:06:27.017Z,0.30
2022-08-31T22:08:57.555Z,0.32
2022-08-31T22:13:53.138Z,0.63
2022-08-31T22:16:20.307Z,0.68
2022-08-31T22:19:06.738Z,0.13
2022-08-31T22:21:34.954Z,0.40
2022-08-31T22:24:05.619Z,0.63
2022-08-31T22:26:35.471Z,0.40
2022-08-31T22:29:02.502Z,0.75
2022-08-31T22:31:29.471Z,0.63
2022-08-31T22:33:57.226Z,0.43
2022-08-31T22:36:31.401Z,0.40
2022-08-31T22:39:03.865Z,0.45
2022-08-31T22:41:32.823Z,1.05
2022-08-31T22:44:00.254Z,0.25
2022-08-31T22:46:28.422Z,0.65
2022-08-31T22:48:55.668Z,0.30
2022-08-31T22:51:22.661Z,0.30
2022-08-31T22:53:51.730Z,0.45
2022-08-31T22:56:28.142Z,0.57
2022-08-31T22:58:57.563Z,0.70
2022-08-31T23:01:37.282Z,0.52
2022-08-31T23:04:06.873Z,0.70
2022-08-31T23:06:36.403Z,0.85
2022-08-31T23:09:05.412Z,0.73
2022-08-31T23:11:32.099Z,0.25
2022-08-31T23:13:58.850Z,0.25
2022-08-31T23:16:46.356Z,0.40
2022-08-31T23:19:19.815Z,0.45
2022-08-31T23:21:52.947Z,0.40
2022-08-31T23:24:28.658Z,0.43
2022-08-31T23:27:04.198Z,0.55
2022-08-31T23:29:51.349Z,0.28
2022-08-31T23:32:19.834Z,0.88
2022-08-31T23:34:49.729Z,0.30
2022-08-31T23:37:17.901Z,0.40
2022-08-31T23:39:46.250Z,0.50
2022-08-31T23:42:15.445Z,0.30
2022-08-31T23:44:43.870Z,0.20
2022-08-31T23:47:13.664Z,0.47
2022-08-31T23:49:42.380Z,0.38
2022-08-31T23:52:11.907Z,0.68
2022-08-31T23:54:39.417Z,1.17
2022-08-31T23:57:08.498Z,0.60
2022-08-31T23:59:53.202Z,0.30
